createdAt,value
2023-05-13T00:01:20.902Z,19.99
2023-05-13T00:03:51.738Z,19.97
2023-05-13T00:06:22.159Z,19.96
2023-05-13T00:08:52.762Z,19.99
2023-05-13T00:11:23.311Z,20.01
2023-05-13T00:13:53.816Z,20.01
2023-05-13T00:16:25.945Z,20.03
2023-05-13T00:18:57.479Z,20.03
2023-05-13T00:21:27.760Z,20.04
2023-05-13T00:23:58.655Z,20.04
2023-05-13T00:26:29.052Z,20.04
2023-05-13T00:28:59.547Z,20.05
2023-05-13T00:31:30.153Z,20.06
2023-05-13T00:34:00.706Z,20.06
2023-05-13T00:36:31.392Z,20.07
2023-05-13T00:39:01.860Z,20.08
2023-05-13T00:41:50.192Z,20.08
2023-05-13T00:44:20.883Z,20.08
2023-05-13T00:46:52.497Z,20.07
2023-05-13T00:49:23.382Z,20.09
2023-05-13T00:51:56.650Z,20.09
2023-05-13T00:54:27.057Z,20.12
2023-05-13T00:56:58.464Z,20.13
2023-05-13T00:59:32.605Z,20.13
2023-05-13T01:02:20.204Z,20.12
2023-05-13T01:05:22.009Z,20.10
2023-05-13T01:08:06.107Z,20.08
2023-05-13T01:10:51.207Z,20.08
2023-05-13T01:13:26.723Z,20.07
2023-05-13T01:16:17.072Z,20.06
2023-05-13T01:18:59.505Z,20.06
2023-05-13T01:21:31.177Z,20.05
2023-05-13T01:24:01.621Z,20.03
2023-05-13T01:26:32.132Z,20.03
2023-05-13T01:29:02.907Z,20.01
2023-05-13T01:31:34.144Z,20.01
2023-05-13T01:34:07.816Z,20.02
2023-05-13T01:36:39.054Z,20.02
2023-05-13T01:39:10.951Z,20.01
2023-05-13T01:41:41.498Z,20.01
2023-05-13T01:44:12.037Z,19.99
2023-05-13T01:46:44.789Z,20.00
2023-05-13T01:49:15.808Z,19.98
2023-05-13T01:51:47.966Z,19.98
2023-05-13T01:54:18.394Z,19.97
2023-05-13T01:56:54.520Z,19.97
2023-05-13T01:59:25.015Z,19.96
2023-05-13T02:01:56.318Z,19.96
2023-05-13T02:04:29.640Z,19.96
2023-05-13T02:07:01.211Z,19.95
2023-05-13T02:09:34.144Z,19.95
2023-05-13T02:12:04.868Z,19.95
2023-05-13T02:14:53.305Z,19.96
2023-05-13T02:17:24.407Z,19.96
2023-05-13T02:19:55.884Z,19.95
2023-05-13T02:22:26.568Z,19.95
2023-05-13T02:24:57.090Z,19.96
2023-05-13T02:27:27.783Z,19.96
2023-05-13T02:29:58.326Z,19.95
2023-05-13T02:32:29.017Z,19.94
2023-05-13T02:34:59.629Z,19.94
2023-05-13T02:37:30.047Z,19.93
2023-05-13T02:40:05.139Z,19.94
2023-05-13T02:42:35.632Z,19.93
2023-05-13T02:45:06.314Z,19.93
2023-05-13T02:47:39.231Z,19.92
2023-05-13T02:50:11.718Z,19.94
2023-05-13T02:52:43.222Z,19.95
2023-05-13T02:55:13.701Z,19.97
2023-05-13T02:57:45.740Z,19.96
2023-05-13T03:00:16.991Z,19.95
2023-05-13T03:02:47.484Z,19.96
2023-05-13T03:05:18.054Z,19.96
2023-05-13T03:07:49.237Z,19.99
2023-05-13T03:10:19.973Z,19.99
2023-05-13T03:12:50.479Z,19.98
2023-05-13T03:15:22.185Z,19.99
2023-05-13T03:18:10.648Z,19.99
2023-05-13T03:20:41.152Z,20.01
2023-05-13T03:23:11.631Z,20.02
2023-05-13T03:25:42.273Z,20.03
2023-05-13T03:28:12.784Z,20.04
2023-05-13T03:30:46.237Z,20.06
2023-05-13T03:33:20.750Z,20.07
2023-05-13T03:35:51.480Z,20.07
2023-05-13T03:38:27.454Z,20.07
2023-05-13T03:40:58.067Z,20.09
2023-05-13T03:43:28.970Z,20.10
2023-05-13T03:46:04.162Z,20.10
2023-05-13T03:48:34.659Z,20.10
2023-05-13T03:51:05.866Z,20.12
2023-05-13T03:53:36.548Z,20.13
2023-05-13T03:56:07.543Z,20.13
2023-05-13T03:58:55.980Z,20.14
2023-05-13T04:01:27.315Z,20.15
2023-05-13T04:03:57.856Z,20.16
2023-05-13T04:06:28.253Z,20.16
2023-05-13T04:08:58.618Z,20.16
2023-05-13T04:11:29.289Z,20.17
2023-05-13T04:14:00.254Z,20.18
2023-05-13T04:16:49.068Z,20.19
2023-05-13T04:19:19.621Z,20.20
2023-05-13T04:21:50.194Z,20.21
2023-05-13T04:24:20.562Z,20.21
2023-05-13T04:26:52.112Z,20.22
2023-05-13T04:29:22.363Z,20.23
2023-05-13T04:31:53.675Z,20.23
2023-05-13T04:34:24.280Z,20.24
2023-05-13T04:36:55.325Z,20.27
2023-05-13T04:39:25.771Z,20.27
2023-05-13T04:41:56.030Z,20.28
2023-05-13T04:44:26.861Z,20.29
2023-05-13T04:46:57.281Z,20.30
2023-05-13T04:49:27.956Z,20.30
2023-05-13T04:51:59.082Z,20.32
2023-05-13T04:54:29.696Z,20.32
2023-05-13T04:57:00.203Z,20.33
2023-05-13T04:59:30.813Z,20.34
2023-05-13T05:02:01.260Z,20.36
2023-05-13T05:04:31.889Z,20.36
2023-05-13T05:07:02.654Z,20.37
2023-05-13T05:09:33.091Z,20.38
2023-05-13T05:12:03.509Z,20.38
2023-05-13T05:14:35.974Z,20.39
2023-05-13T05:17:06.622Z,20.40
2023-05-13T05:19:37.144Z,20.40
2023-05-13T05:22:08.211Z,20.43
2023-05-13T05:24:38.830Z,20.42
2023-05-13T05:27:09.192Z,20.43
2023-05-13T05:29:39.684Z,20.44
2023-05-13T05:32:10.543Z,20.45
2023-05-13T05:34:41.636Z,20.45
2023-05-13T05:37:12.626Z,20.46
2023-05-13T05:39:44.445Z,20.47
2023-05-13T05:42:15.420Z,20.48
2023-05-13T05:44:46.064Z,20.49
2023-05-13T05:47:16.631Z,20.49
2023-05-13T05:49:47.897Z,20.49
2023-05-13T05:52:19.055Z,20.50
2023-05-13T05:54:49.737Z,20.52
2023-05-13T05:57:20.626Z,20.52
2023-05-13T05:59:51.482Z,20.52
2023-05-13T06:02:21.935Z,20.53
2023-05-13T06:04:54.630Z,20.54
2023-05-13T06:07:25.087Z,20.54
2023-05-13T06:09:55.825Z,20.55
2023-05-13T06:12:26.512Z,20.55
2023-05-13T06:14:57.261Z,20.56
2023-05-13T06:17:28.044Z,20.56
2023-05-13T06:19:58.530Z,20.57
2023-05-13T06:22:28.974Z,20.57
2023-05-13T06:24:59.474Z,20.59
2023-05-13T06:27:29.917Z,20.59
2023-05-13T06:30:00.430Z,20.59
2023-05-13T06:32:30.854Z,20.60
2023-05-13T06:35:01.175Z,20.61
2023-05-13T06:37:31.948Z,20.61
2023-05-13T06:40:02.874Z,20.63
2023-05-13T06:42:35.099Z,20.63
2023-05-13T06:45:14.301Z,20.63
2023-05-13T06:47:45.427Z,20.64
2023-05-13T06:50:15.870Z,20.65
2023-05-13T06:52:46.355Z,20.66
2023-05-13T06:55:18.163Z,20.66
2023-05-13T06:57:48.734Z,20.67
2023-05-13T07:00:19.872Z,20.66
2023-05-13T07:02:50.421Z,20.67
2023-05-13T07:05:20.845Z,20.68
2023-05-13T07:07:55.062Z,20.68
2023-05-13T07:10:25.682Z,20.68
2023-05-13T07:12:56.006Z,20.69
2023-05-13T07:15:26.699Z,20.69
2023-05-13T07:17:57.631Z,20.71
2023-05-13T07:20:28.651Z,20.71
2023-05-13T07:23:17.062Z,20.71
2023-05-13T07:25:47.628Z,20.71
2023-05-13T07:28:18.097Z,20.71
2023-05-13T07:30:48.715Z,20.72
2023-05-13T07:33:19.196Z,20.72
2023-05-13T07:35:49.632Z,20.73
2023-05-13T07:38:20.660Z,20.75
2023-05-13T07:40:51.326Z,20.74
2023-05-13T07:43:25.284Z,20.76
2023-05-13T07:45:55.823Z,20.76
2023-05-13T07:48:27.267Z,20.75
2023-05-13T07:50:59.333Z,20.77
2023-05-13T07:53:29.896Z,20.78
2023-05-13T07:56:00.292Z,20.78
2023-05-13T07:58:30.746Z,20.79
2023-05-13T08:01:01.387Z,20.78
2023-05-13T08:03:31.982Z,20.79
2023-05-13T08:06:02.506Z,20.78
2023-05-13T08:08:32.916Z,20.80
2023-05-13T08:11:03.335Z,20.79
2023-05-13T08:13:33.841Z,20.80
2023-05-13T08:16:05.035Z,20.80
2023-05-13T08:18:35.856Z,20.80
2023-05-13T08:21:06.534Z,20.81
2023-05-13T08:23:45.287Z,20.81
2023-05-13T08:26:16.575Z,20.82
2023-05-13T08:28:48.027Z,20.82
2023-05-13T08:31:18.669Z,20.82
2023-05-13T08:33:50.135Z,20.83
2023-05-13T08:36:21.253Z,20.83
2023-05-13T08:38:51.833Z,20.83
2023-05-13T08:41:24.264Z,20.84
2023-05-13T08:43:58.845Z,20.83
2023-05-13T08:46:38.178Z,20.84
2023-05-13T08:49:11.059Z,20.84
2023-05-13T08:51:42.608Z,20.85
2023-05-13T08:54:13.287Z,20.85
2023-05-13T08:56:43.664Z,20.84
2023-05-13T08:59:14.016Z,20.85
2023-05-13T09:01:45.858Z,20.86
2023-05-13T09:04:16.515Z,20.86
2023-05-13T09:06:50.322Z,20.85
2023-05-13T09:09:21.110Z,20.86
2023-05-13T09:11:52.061Z,20.86
2023-05-13T09:14:22.552Z,20.87
2023-05-13T09:16:53.335Z,20.88
2023-05-13T09:19:26.848Z,20.87
2023-05-13T09:21:59.113Z,20.87
2023-05-13T09:24:29.879Z,20.87
2023-05-13T09:27:00.310Z,20.87
2023-05-13T09:29:33.518Z,20.88
2023-05-13T09:32:09.181Z,20.88
2023-05-13T09:34:39.646Z,20.87
2023-05-13T09:37:11.038Z,20.88
2023-05-13T09:39:43.426Z,20.88
2023-05-13T09:42:21.628Z,20.88
2023-05-13T09:44:52.239Z,20.89
2023-05-13T09:47:22.718Z,20.88
2023-05-13T09:49:59.540Z,20.88
2023-05-13T09:52:35.304Z,20.88
2023-05-13T09:55:06.952Z,20.88
2023-05-13T09:57:37.758Z,20.88
2023-05-13T10:00:17.845Z,20.89
2023-05-13T10:02:55.861Z,20.88
2023-05-13T10:05:26.974Z,20.88
2023-05-13T10:07:58.875Z,20.88
2023-05-13T10:10:32.346Z,20.89
2023-05-13T10:13:10.822Z,20.89
2023-05-13T10:15:54.756Z,20.88
2023-05-13T10:18:26.410Z,20.89
2023-05-13T10:20:57.680Z,20.88
2023-05-13T10:23:49.139Z,20.88
2023-05-13T10:26:19.773Z,20.88
2023-05-13T10:28:51.166Z,20.89
2023-05-13T10:31:21.767Z,20.88
2023-05-13T10:33:55.691Z,20.89
2023-05-13T10:36:41.070Z,20.88
2023-05-13T10:39:48.514Z,20.88
2023-05-13T10:42:39.813Z,20.87
2023-05-13T10:45:11.653Z,20.88
2023-05-13T10:48:08.986Z,20.89
2023-05-13T10:50:43.526Z,20.88
2023-05-13T10:53:24.454Z,20.88
2023-05-13T10:56:02.030Z,20.87
2023-05-13T10:58:39.372Z,20.88
2023-05-13T11:01:16.277Z,20.88
2023-05-13T11:03:58.076Z,20.88
2023-05-13T11:06:39.601Z,20.87
2023-05-13T11:09:14.396Z,20.88
2023-05-13T11:12:03.249Z,20.87
2023-05-13T11:14:51.632Z,20.88
2023-05-13T11:17:22.330Z,20.87
2023-05-13T11:19:53.547Z,20.88
2023-05-13T11:22:29.146Z,20.86
2023-05-13T11:25:11.041Z,20.88
2023-05-13T11:27:45.237Z,20.88
2023-05-13T11:30:28.231Z,20.88
2023-05-13T11:33:00.581Z,20.88
2023-05-13T11:35:35.068Z,20.88
2023-05-13T11:38:07.260Z,20.88
2023-05-13T11:40:40.380Z,20.87
2023-05-13T11:43:13.747Z,20.87
2023-05-13T11:45:43.851Z,20.88
2023-05-13T11:48:22.369Z,20.88
2023-05-13T11:50:53.555Z,20.88
2023-05-13T11:53:24.549Z,20.88
2023-05-13T11:55:55.018Z,20.88
2023-05-13T11:58:25.555Z,20.87
2023-05-13T12:00:57.469Z,20.86
2023-05-13T12:03:30.417Z,20.87
2023-05-13T12:06:07.175Z,20.87
2023-05-13T12:08:37.805Z,20.87
2023-05-13T12:11:11.668Z,20.88
2023-05-13T12:13:44.260Z,20.87
2023-05-13T12:16:14.744Z,20.87
2023-05-13T12:18:45.208Z,20.87
2023-05-13T12:21:19.584Z,20.86
2023-05-13T12:23:50.227Z,20.86
2023-05-13T12:26:21.663Z,20.86
2023-05-13T12:29:00.498Z,20.86
2023-05-13T12:31:30.994Z,20.85
2023-05-13T12:34:01.387Z,20.85
2023-05-13T12:36:37.763Z,20.85
2023-05-13T12:39:13.001Z,20.86
2023-05-13T12:41:45.314Z,20.85
2023-05-13T12:44:17.249Z,20.87
2023-05-13T12:47:02.871Z,20.85
2023-05-13T12:49:33.272Z,20.85
2023-05-13T12:52:23.164Z,20.85
2023-05-13T12:54:53.637Z,20.85
2023-05-13T12:57:24.452Z,20.85
2023-05-13T12:59:55.278Z,20.85
2023-05-13T13:02:25.724Z,20.84
2023-05-13T13:04:56.227Z,20.84
2023-05-13T13:07:26.642Z,20.85
2023-05-13T13:09:57.121Z,20.84
2023-05-13T13:12:27.719Z,20.84
2023-05-13T13:14:59.189Z,20.83
2023-05-13T13:17:29.835Z,20.83
2023-05-13T13:20:00.249Z,20.83
2023-05-13T13:22:31.013Z,20.83
2023-05-13T13:25:01.491Z,20.84
2023-05-13T13:27:31.913Z,20.83
2023-05-13T13:30:02.366Z,20.83
2023-05-13T13:32:33.327Z,20.81
2023-05-13T13:35:04.977Z,20.83
2023-05-13T13:37:36.196Z,20.82
2023-05-13T13:40:09.928Z,20.82
2023-05-13T13:42:44.540Z,20.83
2023-05-13T13:45:16.248Z,20.81
2023-05-13T13:47:46.962Z,20.81
2023-05-13T13:50:17.453Z,20.82
2023-05-13T13:52:47.895Z,20.81
2023-05-13T13:55:18.510Z,20.82
2023-05-13T13:57:49.139Z,20.80
2023-05-13T14:00:20.251Z,20.80
2023-05-13T14:02:50.820Z,20.79
2023-05-13T14:05:39.523Z,20.79
2023-05-13T14:08:10.073Z,20.79
2023-05-13T14:10:40.550Z,20.78
2023-05-13T14:13:11.173Z,20.79
2023-05-13T14:15:41.661Z,20.78
2023-05-13T14:18:12.460Z,20.78
2023-05-13T14:20:42.922Z,20.78
2023-05-13T14:23:13.296Z,20.78
2023-05-13T14:25:43.891Z,20.78
2023-05-13T14:28:14.863Z,20.78
2023-05-13T14:30:45.410Z,20.77
2023-05-13T14:33:15.875Z,20.77
2023-05-13T14:35:46.391Z,20.77
2023-05-13T14:38:17.155Z,20.76
2023-05-13T14:40:47.709Z,20.74
2023-05-13T14:43:18.242Z,20.76
2023-05-13T14:45:48.697Z,20.75
2023-05-13T14:48:19.374Z,20.74
2023-05-13T14:50:49.785Z,20.75
2023-05-13T14:53:20.236Z,20.73
2023-05-13T14:55:51.600Z,20.74
2023-05-13T14:58:22.192Z,20.74
2023-05-13T15:00:52.705Z,20.73
2023-05-13T15:03:23.194Z,20.73
2023-05-13T15:05:55.866Z,20.73
2023-05-13T15:08:26.960Z,20.73
2023-05-13T15:10:57.825Z,20.72
2023-05-13T15:13:28.803Z,20.72
2023-05-13T15:15:59.272Z,20.72
2023-05-13T15:18:29.793Z,20.71
2023-05-13T15:21:00.332Z,20.71
2023-05-13T15:23:31.020Z,20.72
2023-05-13T15:26:01.470Z,20.70
2023-05-13T15:28:31.852Z,20.71
2023-05-13T15:31:02.400Z,20.70
2023-05-13T15:33:34.107Z,20.70
2023-05-13T15:36:04.878Z,20.69
2023-05-13T15:38:35.316Z,20.70
2023-05-13T15:41:05.768Z,20.69
2023-05-13T15:43:36.202Z,20.68
2023-05-13T15:46:06.994Z,20.68
2023-05-13T15:48:38.028Z,20.68
2023-05-13T15:51:09.040Z,20.68
2023-05-13T15:53:39.470Z,20.68
2023-05-13T15:56:10.093Z,20.67
2023-05-13T15:58:58.743Z,20.68
2023-05-13T16:01:29.247Z,20.67
2023-05-13T16:03:59.721Z,20.66
2023-05-13T16:06:30.291Z,20.66
2023-05-13T16:09:03.505Z,20.65
2023-05-13T16:11:33.249Z,20.65
2023-05-13T16:14:03.632Z,20.65
2023-05-13T16:16:34.174Z,20.65
2023-05-13T16:19:07.550Z,20.65
2023-05-13T16:21:42.080Z,20.65
2023-05-13T16:24:12.777Z,20.64
2023-05-13T16:26:43.365Z,20.64
2023-05-13T16:29:14.200Z,20.64
2023-05-13T16:31:44.682Z,20.62
2023-05-13T16:34:15.560Z,20.63
2023-05-13T16:36:45.913Z,20.62
2023-05-13T16:39:16.337Z,20.61
2023-05-13T16:41:46.737Z,20.61
2023-05-13T16:44:17.092Z,20.61
2023-05-13T16:46:47.481Z,20.60
2023-05-13T16:49:17.940Z,20.59
2023-05-13T16:51:48.390Z,20.60
2023-05-13T16:54:18.871Z,20.60
2023-05-13T16:56:51.885Z,20.59
2023-05-13T16:59:26.895Z,20.58
2023-05-13T17:01:57.719Z,20.57
2023-05-13T17:04:29.802Z,20.58
2023-05-13T17:07:00.208Z,20.57
2023-05-13T17:09:32.214Z,20.57
2023-05-13T17:12:02.712Z,20.56
2023-05-13T17:14:33.163Z,20.56
2023-05-13T17:17:04.646Z,20.55
2023-05-13T17:19:35.157Z,20.55
2023-05-13T17:22:08.412Z,20.55
2023-05-13T17:24:39.977Z,20.55
2023-05-13T17:27:10.973Z,20.55
2023-05-13T17:29:41.507Z,20.54
2023-05-13T17:32:12.080Z,20.53
2023-05-13T17:34:42.304Z,20.54
2023-05-13T17:37:12.909Z,20.54
2023-05-13T17:39:43.290Z,20.53
2023-05-13T17:42:13.657Z,20.53
2023-05-13T17:44:44.182Z,20.52
2023-05-13T17:47:14.918Z,20.51
2023-05-13T17:49:45.332Z,20.51
2023-05-13T17:52:16.088Z,20.51
2023-05-13T17:54:46.411Z,20.50
2023-05-13T17:57:17.270Z,20.49
2023-05-13T17:59:47.708Z,20.49
2023-05-13T18:02:18.424Z,20.49
2023-05-13T18:04:49.061Z,20.48
2023-05-13T18:07:22.565Z,20.47
2023-05-13T18:09:53.390Z,20.46
2023-05-13T18:12:23.951Z,20.46
2023-05-13T18:14:54.614Z,20.46
2023-05-13T18:17:25.267Z,20.45
2023-05-13T18:19:55.852Z,20.45
2023-05-13T18:22:26.318Z,20.45
2023-05-13T18:24:57.015Z,20.45
2023-05-13T18:27:27.527Z,20.44
2023-05-13T18:29:57.903Z,20.43
2023-05-13T18:32:28.357Z,20.43
2023-05-13T18:34:58.800Z,20.43
2023-05-13T18:37:29.229Z,20.43
2023-05-13T18:40:00.347Z,20.42
2023-05-13T18:42:31.475Z,20.41
2023-05-13T18:45:01.948Z,20.41
2023-05-13T18:47:32.370Z,20.40
2023-05-13T18:50:02.984Z,20.39
2023-05-13T18:52:33.384Z,20.39
2023-05-13T18:55:06.614Z,20.39
2023-05-13T18:57:37.514Z,20.39
2023-05-13T19:00:08.914Z,20.39
2023-05-13T19:02:39.751Z,20.38
2023-05-13T19:05:10.914Z,20.37
2023-05-13T19:07:41.392Z,20.36
2023-05-13T19:10:12.038Z,20.35
2023-05-13T19:12:42.625Z,20.36
2023-05-13T19:15:13.263Z,20.35
2023-05-13T19:17:43.942Z,20.35
2023-05-13T19:20:32.701Z,20.35
2023-05-13T19:23:03.084Z,20.34
2023-05-13T19:25:33.408Z,20.33
2023-05-13T19:28:06.754Z,20.33
2023-05-13T19:30:37.463Z,20.32
2023-05-13T19:33:09.084Z,20.32
2023-05-13T19:35:39.606Z,20.30
2023-05-13T19:38:10.078Z,20.32
2023-05-13T19:40:40.455Z,20.31
2023-05-13T19:43:11.102Z,20.29
2023-05-13T19:45:41.421Z,20.29
2023-05-13T19:48:11.780Z,20.28
2023-05-13T19:50:43.156Z,20.28
2023-05-13T19:53:14.085Z,20.28
2023-05-13T19:55:44.464Z,20.26
2023-05-13T19:58:15.102Z,20.26
2023-05-13T20:00:45.615Z,20.25
2023-05-13T20:03:16.239Z,20.26
2023-05-13T20:06:04.427Z,20.25
2023-05-13T20:08:35.251Z,20.25
2023-05-13T20:11:05.562Z,20.24
2023-05-13T20:13:36.221Z,20.23
2023-05-13T20:16:06.880Z,20.22
2023-05-13T20:18:37.811Z,20.23
2023-05-13T20:21:08.300Z,20.22
2023-05-13T20:23:38.824Z,20.21
2023-05-13T20:26:09.790Z,20.21
2023-05-13T20:28:40.185Z,20.20
2023-05-13T20:31:10.937Z,20.20
2023-05-13T20:33:41.604Z,20.18
2023-05-13T20:36:12.191Z,20.19
2023-05-13T20:38:42.773Z,20.18
2023-05-13T20:41:13.162Z,20.17
2023-05-13T20:43:43.566Z,20.17
2023-05-13T20:46:18.197Z,20.16
2023-05-13T20:48:49.481Z,20.17
2023-05-13T20:51:20.042Z,20.16
2023-05-13T20:53:50.493Z,20.15
2023-05-13T20:56:20.911Z,20.15
2023-05-13T20:58:51.880Z,20.14
2023-05-13T21:01:22.254Z,20.14
2023-05-13T21:03:52.903Z,20.14
2023-05-13T21:06:23.556Z,20.14
2023-05-13T21:08:54.262Z,20.13
2023-05-13T21:11:24.693Z,20.12
2023-05-13T21:14:13.217Z,20.12
2023-05-13T21:16:44.102Z,20.11
2023-05-13T21:19:24.739Z,20.11
2023-05-13T21:21:55.170Z,20.11
2023-05-13T21:24:25.512Z,20.10
2023-05-13T21:26:56.677Z,20.10
2023-05-13T21:29:27.885Z,20.09
2023-05-13T21:31:58.873Z,20.10
2023-05-13T21:34:29.400Z,20.09
2023-05-13T21:36:59.841Z,20.09
2023-05-13T21:39:30.259Z,20.08
2023-05-13T21:42:02.201Z,20.08
2023-05-13T21:44:32.600Z,20.07
2023-05-13T21:47:03.047Z,20.07
2023-05-13T21:49:33.506Z,20.08
2023-05-13T21:52:04.054Z,20.06
2023-05-13T21:54:34.621Z,20.05
2023-05-13T21:57:05.239Z,20.05
2023-05-13T21:59:35.496Z,20.05
2023-05-13T22:02:06.170Z,20.04
2023-05-13T22:04:36.518Z,20.05
2023-05-13T22:07:07.034Z,20.03
2023-05-13T22:09:37.636Z,20.03
2023-05-13T22:12:08.427Z,20.03
2023-05-13T22:14:38.852Z,20.03
2023-05-13T22:17:10.518Z,20.02
2023-05-13T22:19:41.355Z,20.02
2023-05-13T22:22:11.930Z,20.02
2023-05-13T22:24:42.336Z,20.01
2023-05-13T22:27:12.861Z,20.02
2023-05-13T22:29:43.278Z,20.01
2023-05-13T22:32:13.976Z,20.01
2023-05-13T22:34:44.566Z,20.01
2023-05-13T22:37:14.966Z,20.01
2023-05-13T22:39:45.272Z,20.00
2023-05-13T22:42:15.643Z,20.00
2023-05-13T22:44:46.514Z,19.99
2023-05-13T22:47:16.996Z,19.99
2023-05-13T22:49:47.372Z,19.99
2023-05-13T22:52:17.830Z,19.99
2023-05-13T22:54:48.101Z,19.99
2023-05-13T22:57:18.646Z,19.97
2023-05-13T22:59:49.218Z,19.98
2023-05-13T23:02:19.612Z,19.98
2023-05-13T23:04:50.035Z,19.98
2023-05-13T23:07:20.463Z,19.96
2023-05-13T23:09:50.887Z,19.98
2023-05-13T23:12:21.314Z,19.98
2023-05-13T23:14:51.757Z,19.97
2023-05-13T23:17:22.276Z,19.98
2023-05-13T23:19:52.924Z,19.98
2023-05-13T23:22:23.324Z,19.97
2023-05-13T23:24:53.872Z,19.97
2023-05-13T23:27:24.402Z,19.98
2023-05-13T23:29:55.009Z,19.97
2023-05-13T23:32:26.269Z,19.96
2023-05-13T23:34:56.473Z,19.99
2023-05-13T23:37:27.234Z,19.97
2023-05-13T23:40:15.967Z,19.98
2023-05-13T23:42:46.400Z,19.98
2023-05-13T23:45:17.500Z,19.99
2023-05-13T23:47:48.276Z,19.98
2023-05-13T23:50:18.575Z,19.99
2023-05-13T23:52:52.656Z,19.99
2023-05-13T23:55:23.214Z,19.98
2023-05-13T23:57:53.587Z,20.01
